Main page
METAR-TAF:

METAR-TAF

Airports :

Wayne County Airport

Monticello, Kentucky, United States

latitude: 36-51-19N, longitude: 084-51-22W, elevation: 964 ft

Current weather observation

The report was made 42 minutes ago, at 10:56 UTC
Calm wind
Temperature 73°F
Humidity 100%
Pressure 30.01 in. Hg
Visibility: 10 miles
Overcast at a height of 6000 ft

METAR: KEKQ 161056Z AUTO 00000KT 10SM OVC060 23/23 A3001 RMK AO2 SLP148 T02280228

Time: 07:38 (11:38 UTC)


TAF: missing

Weather observations and forecasts of more than 4000 airports (METAR and TAF reports).

The available stations are represented by yellow and red dots on the map.

Hover mouse over dot to see the name of the station.

Then click to see weather observations and forecasts.

To change the map : click on the green buttons with a black cross to zoom in, on the green button with a dash to zoom out, or on the green arrows for adjacent maps.


METAR-TAF: